createdAt,value
2019-03-29T00:00:53.931Z,3.33
2019-03-29T00:03:25.212Z,3.36
2019-03-29T00:05:56.430Z,3.42
2019-03-29T00:08:27.778Z,3.44
2019-03-29T00:10:58.949Z,3.31
2019-03-29T00:13:30.288Z,3.49
2019-03-29T00:16:01.624Z,3.65
2019-03-29T00:18:33.225Z,3.81
2019-03-29T00:21:04.478Z,3.97
2019-03-29T00:23:35.666Z,4.20
2019-03-29T00:26:07.009Z,4.30
2019-03-29T00:28:38.339Z,4.45
2019-03-29T00:31:09.710Z,4.71
2019-03-29T00:33:40.894Z,4.95
2019-03-29T00:36:12.203Z,4.80
2019-03-29T00:38:43.478Z,4.77
2019-03-29T00:41:14.669Z,4.85
2019-03-29T00:43:45.910Z,4.62
2019-03-29T00:46:17.111Z,4.55
2019-03-29T00:48:48.384Z,4.72
2019-03-29T00:51:19.594Z,4.79
2019-03-29T00:53:50.944Z,4.81
2019-03-29T00:56:22.110Z,4.82
2019-03-29T00:58:53.230Z,4.77
2019-03-29T01:01:24.367Z,4.67
2019-03-29T01:03:55.799Z,4.67
2019-03-29T01:06:26.954Z,4.55
2019-03-29T01:08:58.240Z,4.58
2019-03-29T01:11:29.434Z,4.50
2019-03-29T01:14:00.580Z,4.50
2019-03-29T01:16:31.756Z,4.47
2019-03-29T01:19:03.901Z,4.52
2019-03-29T01:21:35.344Z,4.56
2019-03-29T01:24:06.607Z,4.58
2019-03-29T01:26:37.719Z,4.59
2019-03-29T01:29:08.841Z,4.70
2019-03-29T01:31:40.242Z,4.69
2019-03-29T01:34:12.280Z,4.68
2019-03-29T01:36:43.554Z,4.71
2019-03-29T01:39:14.727Z,4.77
2019-03-29T01:41:45.920Z,4.79
2019-03-29T01:44:17.210Z,4.84
2019-03-29T01:46:48.448Z,5.11
2019-03-29T01:49:19.684Z,5.25
2019-03-29T01:51:50.800Z,5.23
2019-03-29T01:54:22.042Z,5.27
2019-03-29T01:56:53.155Z,5.19
2019-03-29T01:59:24.257Z,5.27
2019-03-29T02:01:55.491Z,5.22
2019-03-29T02:04:26.639Z,5.21
2019-03-29T02:06:57.824Z,5.28
2019-03-29T02:09:29.031Z,5.56
2019-03-29T02:12:00.220Z,5.80
2019-03-29T02:14:31.307Z,5.92
2019-03-29T02:17:02.585Z,5.99
2019-03-29T02:19:33.750Z,6.01
2019-03-29T02:22:05.040Z,5.87
2019-03-29T02:24:36.193Z,5.71
2019-03-29T02:27:07.940Z,5.79
2019-03-29T02:29:39.094Z,5.86
2019-03-29T02:32:10.296Z,5.89
2019-03-29T02:34:43.639Z,5.86
2019-03-29T02:37:14.468Z,5.89
2019-03-29T02:39:45.653Z,5.84
2019-03-29T02:42:16.875Z,5.95
2019-03-29T02:44:48.095Z,5.94
2019-03-29T02:47:19.434Z,5.95
2019-03-29T02:49:50.652Z,5.93
2019-03-29T02:52:21.829Z,5.97
2019-03-29T02:54:52.984Z,5.98
2019-03-29T02:57:24.259Z,6.06
2019-03-29T02:59:55.395Z,5.98
2019-03-29T03:02:26.752Z,5.93
2019-03-29T03:04:58.209Z,5.88
2019-03-29T03:07:29.401Z,5.84
2019-03-29T03:10:00.608Z,5.80
2019-03-29T03:12:31.682Z,5.87
2019-03-29T03:15:02.812Z,5.88
2019-03-29T03:17:34.029Z,5.97
2019-03-29T03:20:06.609Z,5.96
2019-03-29T03:22:37.724Z,5.97
2019-03-29T03:25:09.920Z,5.85
2019-03-29T03:27:41.109Z,5.84
2019-03-29T03:30:13.573Z,5.84
2019-03-29T03:32:44.970Z,5.79
2019-03-29T03:35:16.657Z,5.84
2019-03-29T03:37:47.751Z,5.84
2019-03-29T03:40:19.219Z,5.89
2019-03-29T03:42:50.601Z,5.90
2019-03-29T03:45:21.829Z,5.80
2019-03-29T03:47:53.049Z,5.83
2019-03-29T03:50:43.887Z,5.76
2019-03-29T03:53:15.230Z,5.73
2019-03-29T03:55:47.347Z,5.84
2019-03-29T03:58:20.861Z,5.90
2019-03-29T04:00:56.847Z,5.91
2019-03-29T04:03:28.579Z,5.95
2019-03-29T04:06:00.135Z,5.93
2019-03-29T04:08:31.418Z,5.95
2019-03-29T04:11:02.790Z,5.91
2019-03-29T04:13:34.168Z,5.89
2019-03-29T04:16:06.125Z,5.91
2019-03-29T04:18:37.363Z,5.89
2019-03-29T04:21:08.798Z,5.86
2019-03-29T04:23:39.964Z,5.86
2019-03-29T04:26:12.111Z,5.84
2019-03-29T04:28:43.656Z,5.99
2019-03-29T04:31:14.909Z,5.85
2019-03-29T04:33:46.195Z,5.89
2019-03-29T04:36:17.403Z,5.98
2019-03-29T04:38:48.733Z,6.01
2019-03-29T04:41:20.066Z,5.98
2019-03-29T04:43:51.439Z,5.87
2019-03-29T04:46:22.931Z,5.85
2019-03-29T04:48:54.415Z,6.02
2019-03-29T04:51:26.459Z,5.95
2019-03-29T04:53:57.853Z,6.01
2019-03-29T04:56:29.295Z,5.89
2019-03-29T04:59:00.520Z,5.91
2019-03-29T05:01:31.915Z,5.97
2019-03-29T05:04:03.258Z,6.03
2019-03-29T05:06:34.414Z,6.09
2019-03-29T05:09:07.656Z,6.23
2019-03-29T05:11:39.194Z,6.30
2019-03-29T05:14:10.605Z,6.32
2019-03-29T05:16:41.959Z,6.30
2019-03-29T05:19:13.445Z,6.37
2019-03-29T05:21:44.852Z,6.40
2019-03-29T05:24:16.237Z,6.43
2019-03-29T05:26:47.674Z,6.49
2019-03-29T05:29:19.173Z,6.59
2019-03-29T05:31:53.750Z,6.62
2019-03-29T05:34:25.260Z,6.66
2019-03-29T05:37:00.960Z,6.76
2019-03-29T05:39:38.430Z,6.96
2019-03-29T05:42:12.584Z,7.10
2019-03-29T05:44:44.022Z,7.23
2019-03-29T05:47:15.671Z,7.39
2019-03-29T05:49:47.066Z,7.33
2019-03-29T05:52:18.422Z,7.42
2019-03-29T05:54:50.075Z,7.49
2019-03-29T05:57:21.323Z,7.36
2019-03-29T05:59:52.749Z,7.32
2019-03-29T06:02:24.054Z,7.45
2019-03-29T06:04:55.430Z,7.61
2019-03-29T06:07:26.573Z,7.68
2019-03-29T06:09:57.768Z,7.82
2019-03-29T06:12:29.147Z,7.92
2019-03-29T06:15:01.019Z,8.05
2019-03-29T06:17:32.194Z,8.16
2019-03-29T06:20:03.493Z,8.16
2019-03-29T06:22:34.839Z,8.15
2019-03-29T06:25:11.533Z,8.41
2019-03-29T06:27:42.944Z,8.40
2019-03-29T06:30:16.925Z,8.48
2019-03-29T06:32:48.180Z,8.80
2019-03-29T06:35:19.361Z,8.78
2019-03-29T06:37:50.941Z,8.81
2019-03-29T06:40:27.433Z,9.09
2019-03-29T06:42:58.609Z,9.28
2019-03-29T06:45:30.020Z,9.51
2019-03-29T06:48:01.299Z,9.74
2019-03-29T06:50:32.646Z,9.67
2019-03-29T06:53:04.045Z,9.90
2019-03-29T06:55:35.864Z,10.23
2019-03-29T06:58:07.162Z,10.46
2019-03-29T07:00:38.535Z,10.47
2019-03-29T07:03:09.994Z,10.46
2019-03-29T07:05:41.206Z,10.47
2019-03-29T07:08:12.539Z,10.59
2019-03-29T07:10:43.819Z,10.50
2019-03-29T07:13:15.167Z,10.90
2019-03-29T07:15:46.401Z,11.33
2019-03-29T07:18:18.070Z,11.62
2019-03-29T07:20:49.359Z,11.93
2019-03-29T07:23:20.614Z,12.27
2019-03-29T07:25:52.435Z,12.33
2019-03-29T07:28:23.623Z,12.30
2019-03-29T07:30:54.947Z,12.27
2019-03-29T07:33:26.263Z,12.43
2019-03-29T07:35:57.549Z,12.47
2019-03-29T07:38:28.731Z,12.76
2019-03-29T07:41:02.071Z,12.74
2019-03-29T07:43:33.306Z,13.48
2019-03-29T07:46:04.474Z,13.43
2019-03-29T07:48:35.709Z,13.28
2019-03-29T07:51:06.929Z,12.88
2019-03-29T07:53:38.123Z,12.35
2019-03-29T07:56:09.333Z,12.29
2019-03-29T07:58:40.711Z,12.28
2019-03-29T08:01:11.948Z,12.66
2019-03-29T08:03:43.473Z,13.20
2019-03-29T08:06:15.241Z,13.33
2019-03-29T08:08:46.479Z,12.72
2019-03-29T08:11:26.068Z,12.56
2019-03-29T08:13:50.632Z,12.95
2019-03-29T08:16:22.230Z,12.45
2019-03-29T08:18:53.527Z,12.33
2019-03-29T08:21:25.156Z,12.01
2019-03-29T08:23:56.484Z,12.08
2019-03-29T08:26:27.698Z,11.73
2019-03-29T08:28:58.862Z,11.48
2019-03-29T08:31:30.079Z,11.07
2019-03-29T08:34:01.284Z,10.97
2019-03-29T08:36:32.596Z,10.79
2019-03-29T08:39:05.068Z,10.70
2019-03-29T08:41:36.518Z,10.30
2019-03-29T08:44:07.791Z,10.46
2019-03-29T08:46:39.009Z,10.54
2019-03-29T08:49:10.400Z,10.84
2019-03-29T08:51:41.714Z,10.95
2019-03-29T08:54:13.134Z,11.26
2019-03-29T08:56:44.525Z,11.76
2019-03-29T08:59:17.500Z,12.34
2019-03-29T09:01:48.715Z,13.01
2019-03-29T09:04:21.745Z,13.25
2019-03-29T09:06:54.115Z,12.86
2019-03-29T09:09:25.826Z,12.58
2019-03-29T09:11:57.248Z,12.23
2019-03-29T09:14:31.263Z,12.42
2019-03-29T09:17:01.619Z,11.95
2019-03-29T09:19:32.828Z,11.74
2019-03-29T09:22:04.153Z,11.26
2019-03-29T09:24:35.534Z,11.12
2019-03-29T09:27:06.932Z,10.81
2019-03-29T09:29:38.305Z,10.70
2019-03-29T09:32:09.755Z,10.88
2019-03-29T09:34:41.003Z,10.80
2019-03-29T09:37:12.285Z,10.77
2019-03-29T09:39:44.174Z,10.85
2019-03-29T09:42:28.146Z,10.81
2019-03-29T09:44:48.485Z,10.83
2019-03-29T09:47:19.609Z,11.01
2019-03-29T09:49:50.839Z,11.16
2019-03-29T09:52:22.076Z,11.50
2019-03-29T09:54:54.188Z,11.71
2019-03-29T09:57:36.811Z,12.04
2019-03-29T09:59:58.470Z,12.12
2019-03-29T10:02:29.599Z,12.42
2019-03-29T10:05:02.896Z,12.57
2019-03-29T10:07:34.151Z,12.85
2019-03-29T10:10:06.551Z,13.40
2019-03-29T10:12:43.860Z,15.60
2019-03-29T10:15:11.482Z,16.67
2019-03-29T10:17:42.794Z,18.36
2019-03-29T10:20:14.195Z,19.13
2019-03-29T10:22:45.475Z,17.35
2019-03-29T10:25:19.779Z,16.11
2019-03-29T10:27:49.802Z,14.94
2019-03-29T10:30:41.534Z,14.11
2019-03-29T10:33:12.772Z,13.37
2019-03-29T10:35:52.158Z,12.62
2019-03-29T10:38:18.456Z,12.43
2019-03-29T10:40:50.745Z,12.31
2019-03-29T10:43:22.043Z,12.55
2019-03-29T10:45:53.210Z,12.74
2019-03-29T10:48:24.414Z,12.75
2019-03-29T10:50:55.917Z,12.46
2019-03-29T10:53:28.693Z,12.64
2019-03-29T10:56:00.448Z,13.28
2019-03-29T10:58:31.611Z,13.51
2019-03-29T11:01:03.080Z,13.69
2019-03-29T11:03:34.446Z,13.03
2019-03-29T11:06:05.736Z,12.77
2019-03-29T11:08:36.990Z,12.65
2019-03-29T11:11:08.176Z,12.48
2019-03-29T11:13:41.195Z,12.55
2019-03-29T11:16:12.331Z,12.46
2019-03-29T11:18:45.802Z,12.96
2019-03-29T11:21:16.777Z,13.08
2019-03-29T11:23:48.089Z,12.97
2019-03-29T11:26:19.930Z,12.99
2019-03-29T11:28:51.211Z,13.16
2019-03-29T11:31:25.349Z,13.41
2019-03-29T11:33:55.676Z,13.85
2019-03-29T11:36:27.088Z,14.38
2019-03-29T11:38:58.442Z,14.69
2019-03-29T11:41:31.594Z,14.45
2019-03-29T11:44:02.829Z,14.05
2019-03-29T11:46:34.014Z,13.88
2019-03-29T11:49:05.484Z,13.69
2019-03-29T11:51:36.758Z,13.63
2019-03-29T11:54:08.118Z,13.62
2019-03-29T11:56:39.389Z,13.40
2019-03-29T11:59:10.768Z,13.43
2019-03-29T12:01:45.547Z,13.50
2019-03-29T12:04:16.888Z,13.47
2019-03-29T12:06:48.305Z,13.41
2019-03-29T12:09:19.568Z,13.37
2019-03-29T12:11:50.828Z,13.51
2019-03-29T12:14:22.019Z,13.68
2019-03-29T12:16:53.359Z,13.81
2019-03-29T12:19:24.479Z,13.91
2019-03-29T12:21:55.672Z,14.05
2019-03-29T12:24:26.831Z,14.04
2019-03-29T12:26:57.925Z,13.78
2019-03-29T12:29:29.170Z,13.82
2019-03-29T12:32:00.474Z,13.51
2019-03-29T12:34:31.668Z,13.58
2019-03-29T12:37:03.029Z,13.94
2019-03-29T12:39:34.235Z,14.12
2019-03-29T12:42:06.128Z,14.14
2019-03-29T12:44:37.544Z,14.25
2019-03-29T12:47:08.786Z,14.13
2019-03-29T12:49:40.029Z,13.81
2019-03-29T12:52:11.554Z,13.54
2019-03-29T12:54:42.809Z,13.43
2019-03-29T12:57:14.004Z,13.32
2019-03-29T12:59:46.084Z,13.31
2019-03-29T13:02:19.647Z,13.47
2019-03-29T13:04:50.888Z,13.54
2019-03-29T13:07:22.257Z,13.23
2019-03-29T13:09:53.608Z,13.31
2019-03-29T13:12:24.904Z,13.49
2019-03-29T13:14:56.144Z,13.45
2019-03-29T13:17:28.638Z,13.29
2019-03-29T13:19:59.998Z,13.04
2019-03-29T13:22:34.598Z,12.68
2019-03-29T13:25:07.359Z,12.87
2019-03-29T13:27:37.596Z,12.96
2019-03-29T13:30:10.624Z,12.86
2019-03-29T13:32:41.943Z,12.78
2019-03-29T13:35:13.385Z,12.95
2019-03-29T13:37:44.626Z,13.22
2019-03-29T13:40:16.198Z,13.36
2019-03-29T13:42:47.543Z,13.43
2019-03-29T13:45:27.676Z,13.38
2019-03-29T13:47:56.144Z,13.58
2019-03-29T13:50:27.574Z,13.42
2019-03-29T13:52:58.863Z,13.57
2019-03-29T13:55:30.101Z,13.71
2019-03-29T13:58:01.421Z,13.74
2019-03-29T14:00:32.784Z,13.43
2019-03-29T14:03:04.056Z,13.59
2019-03-29T14:05:35.348Z,13.44
2019-03-29T14:08:06.635Z,13.39
2019-03-29T14:10:37.963Z,13.06
2019-03-29T14:13:09.378Z,13.31
2019-03-29T14:15:40.532Z,13.40
2019-03-29T14:18:11.844Z,13.31
2019-03-29T14:20:43.159Z,13.20
2019-03-29T14:23:14.459Z,13.03
2019-03-29T14:25:45.674Z,13.20
2019-03-29T14:28:16.988Z,12.94
2019-03-29T14:30:48.303Z,13.14
2019-03-29T14:33:19.697Z,13.35
2019-03-29T14:35:51.618Z,13.77
2019-03-29T14:38:23.159Z,14.00
2019-03-29T14:40:54.562Z,13.83
2019-03-29T14:43:25.919Z,13.91
2019-03-29T14:45:57.254Z,13.47
2019-03-29T14:48:28.559Z,13.52
2019-03-29T14:50:59.770Z,13.35
2019-03-29T14:53:31.020Z,13.41
2019-03-29T14:56:02.275Z,13.40
2019-03-29T14:58:33.573Z,13.40
2019-03-29T15:01:04.949Z,13.52
2019-03-29T15:03:36.227Z,13.70
2019-03-29T15:06:07.407Z,13.75
2019-03-29T15:08:38.779Z,13.47
2019-03-29T15:11:21.563Z,13.41
2019-03-29T15:13:43.034Z,13.56
2019-03-29T15:16:14.284Z,13.65
2019-03-29T15:18:45.734Z,13.40
2019-03-29T15:21:17.083Z,13.52
2019-03-29T15:23:48.208Z,13.46
2019-03-29T15:26:19.505Z,13.40
2019-03-29T15:28:50.769Z,13.47
2019-03-29T15:31:22.039Z,13.39
2019-03-29T15:33:55.615Z,13.24
2019-03-29T15:36:26.283Z,13.40
2019-03-29T15:38:57.864Z,13.36
2019-03-29T15:41:29.187Z,13.39
2019-03-29T15:44:00.493Z,13.30
2019-03-29T15:46:31.869Z,13.30
2019-03-29T15:49:03.013Z,13.15
2019-03-29T15:51:34.434Z,13.10
2019-03-29T15:54:05.687Z,12.97
2019-03-29T15:56:36.904Z,13.04
2019-03-29T15:59:08.094Z,12.91
2019-03-29T16:01:39.375Z,12.93
2019-03-29T16:04:10.569Z,12.95
2019-03-29T16:06:42.079Z,12.94
2019-03-29T16:09:13.409Z,12.85
2019-03-29T16:11:44.632Z,12.74
2019-03-29T16:14:15.984Z,12.73
2019-03-29T16:16:47.337Z,12.74
2019-03-29T16:19:18.669Z,12.72
2019-03-29T16:21:49.926Z,12.64
2019-03-29T16:24:21.127Z,12.63
2019-03-29T16:26:52.528Z,12.51
2019-03-29T16:29:23.775Z,12.19
2019-03-29T16:31:55.021Z,12.15
2019-03-29T16:34:26.248Z,12.13
2019-03-29T16:36:57.456Z,12.03
2019-03-29T16:39:28.740Z,11.80
2019-03-29T16:42:00.028Z,11.72
2019-03-29T16:44:31.344Z,11.64
2019-03-29T16:47:02.585Z,11.61
2019-03-29T16:49:33.939Z,11.57
2019-03-29T16:52:05.245Z,11.55
2019-03-29T16:54:36.574Z,11.51
2019-03-29T16:57:07.749Z,11.35
2019-03-29T16:59:38.963Z,11.29
2019-03-29T17:02:10.346Z,11.19
2019-03-29T17:04:41.491Z,10.78
2019-03-29T17:07:12.634Z,10.49
2019-03-29T17:09:43.952Z,10.10
2019-03-29T17:12:15.258Z,9.87
2019-03-29T17:14:46.579Z,9.63
2019-03-29T17:17:19.945Z,9.49
2019-03-29T17:19:51.309Z,9.36
2019-03-29T17:22:23.765Z,9.18
2019-03-29T17:24:57.192Z,9.04
2019-03-29T17:27:28.108Z,8.88
2019-03-29T17:29:59.310Z,8.76
2019-03-29T17:32:30.718Z,8.83
2019-03-29T17:35:01.841Z,8.82
2019-03-29T17:37:33.124Z,8.82
2019-03-29T17:40:05.109Z,8.68
2019-03-29T17:42:36.393Z,8.66
2019-03-29T17:45:08.292Z,8.60
2019-03-29T17:47:39.527Z,8.49
2019-03-29T17:50:10.997Z,8.45
2019-03-29T17:52:42.574Z,8.38
2019-03-29T17:55:17.294Z,8.20
2019-03-29T17:57:48.801Z,8.02
2019-03-29T18:00:22.938Z,7.92
2019-03-29T18:02:54.155Z,7.79
2019-03-29T18:05:25.396Z,7.63
2019-03-29T18:07:58.334Z,7.50
2019-03-29T18:10:29.524Z,7.46
2019-03-29T18:13:02.310Z,7.59
2019-03-29T18:15:33.624Z,7.74
2019-03-29T18:18:06.004Z,7.81
2019-03-29T18:20:37.467Z,7.76
2019-03-29T18:23:09.924Z,7.62
2019-03-29T18:25:42.709Z,7.47
2019-03-29T18:28:18.718Z,7.45
2019-03-29T18:30:50.265Z,7.31
2019-03-29T18:33:24.358Z,7.09
2019-03-29T18:35:56.180Z,7.13
2019-03-29T18:38:29.878Z,6.95
2019-03-29T18:41:01.153Z,6.87
2019-03-29T18:43:32.484Z,6.63
2019-03-29T18:46:04.420Z,6.56
2019-03-29T18:48:35.829Z,6.60
2019-03-29T18:51:09.644Z,6.69
2019-03-29T18:53:41.094Z,6.58
2019-03-29T18:56:16.808Z,6.64
2019-03-29T18:58:49.083Z,6.76
2019-03-29T19:01:20.378Z,6.85
2019-03-29T19:03:52.039Z,6.97
2019-03-29T19:06:25.306Z,7.19
2019-03-29T19:08:59.888Z,7.26
2019-03-29T19:11:34.535Z,7.26
2019-03-29T19:14:08.329Z,7.16
2019-03-29T19:16:42.731Z,7.09
2019-03-29T19:19:14.269Z,7.12
2019-03-29T19:21:54.451Z,7.08
2019-03-29T19:24:27.897Z,7.01
2019-03-29T19:27:02.872Z,6.96
2019-03-29T19:29:34.984Z,6.83
2019-03-29T19:32:15.069Z,6.71
2019-03-29T19:34:48.506Z,6.59
2019-03-29T19:37:19.919Z,6.42
2019-03-29T19:39:52.463Z,6.36
2019-03-29T19:42:23.720Z,6.06
2019-03-29T19:44:58.579Z,5.99
2019-03-29T19:47:35.610Z,5.78
2019-03-29T19:50:07.416Z,5.68
2019-03-29T19:52:42.290Z,5.61
2019-03-29T19:55:16.122Z,5.56
2019-03-29T19:57:53.940Z,5.50
2019-03-29T20:00:53.006Z,5.46
2019-03-29T20:03:24.330Z,5.41
2019-03-29T20:06:02.105Z,5.36
2019-03-29T20:08:40.579Z,5.40
2019-03-29T20:11:12.354Z,5.32
2019-03-29T20:13:47.088Z,5.42
2019-03-29T20:16:18.725Z,5.34
2019-03-29T20:18:57.382Z,5.34
2019-03-29T20:21:34.055Z,5.33
2019-03-29T20:24:05.487Z,5.15
2019-03-29T20:26:38.140Z,5.16
2019-03-29T20:29:12.207Z,5.10
2019-03-29T20:31:44.758Z,5.09
2019-03-29T20:34:17.678Z,5.14
2019-03-29T20:36:50.611Z,5.17
2019-03-29T20:39:22.939Z,5.14
2019-03-29T20:41:55.458Z,5.32
2019-03-29T20:44:33.925Z,5.23
2019-03-29T20:47:08.685Z,5.13
2019-03-29T20:49:41.444Z,5.19
2019-03-29T20:52:16.421Z,5.26
2019-03-29T20:54:48.927Z,5.34
2019-03-29T20:57:21.635Z,5.43
2019-03-29T20:59:55.043Z,5.47
2019-03-29T21:02:26.564Z,5.69
2019-03-29T21:04:57.866Z,5.76
2019-03-29T21:07:29.193Z,5.67
2019-03-29T21:10:06.876Z,5.54
2019-03-29T21:12:38.338Z,5.37
2019-03-29T21:15:11.569Z,5.06
2019-03-29T21:17:56.036Z,5.03
2019-03-29T21:20:15.998Z,5.02
2019-03-29T21:22:47.398Z,5.00
2019-03-29T21:25:18.695Z,4.93
2019-03-29T21:27:49.998Z,4.90
2019-03-29T21:30:21.819Z,4.97
2019-03-29T21:32:54.063Z,4.94
2019-03-29T21:35:25.330Z,5.23
2019-03-29T21:37:56.725Z,5.38
2019-03-29T21:40:28.134Z,5.23
2019-03-29T21:43:01.820Z,5.29
2019-03-29T21:45:32.316Z,5.21
2019-03-29T21:48:26.931Z,5.07
2019-03-29T21:50:36.460Z,5.22
2019-03-29T21:53:08.134Z,5.15
2019-03-29T21:55:39.238Z,5.10
2019-03-29T21:58:10.539Z,5.12
2019-03-29T22:00:41.668Z,5.18
2019-03-29T22:03:13.097Z,4.99
2019-03-29T22:05:44.763Z,4.91
2019-03-29T22:08:17.960Z,4.92
2019-03-29T22:10:49.209Z,4.92
2019-03-29T22:13:20.441Z,4.85
2019-03-29T22:15:51.643Z,4.85
2019-03-29T22:18:22.780Z,4.80
2019-03-29T22:20:53.862Z,4.97
2019-03-29T22:23:25.044Z,5.09
2019-03-29T22:25:57.875Z,5.20
2019-03-29T22:28:29.334Z,5.16
2019-03-29T22:31:00.713Z,5.17
2019-03-29T22:33:31.978Z,5.11
2019-03-29T22:36:03.219Z,5.04
2019-03-29T22:38:34.395Z,4.99
2019-03-29T22:41:05.636Z,4.87
2019-03-29T22:43:36.745Z,4.77
2019-03-29T22:46:08.091Z,4.75
2019-03-29T22:48:51.699Z,4.99
2019-03-29T22:51:12.640Z,5.14
2019-03-29T22:53:43.911Z,5.10
2019-03-29T22:56:15.246Z,5.12
2019-03-29T22:58:46.714Z,5.04
2019-03-29T23:01:18.468Z,5.02
2019-03-29T23:03:49.800Z,4.83
2019-03-29T23:06:21.043Z,4.67
2019-03-29T23:08:52.145Z,4.58
2019-03-29T23:11:23.352Z,4.38
2019-03-29T23:13:54.617Z,4.44
2019-03-29T23:16:25.762Z,4.49
2019-03-29T23:19:06.353Z,4.33
2019-03-29T23:21:29.800Z,4.22
2019-03-29T23:24:00.940Z,4.19
2019-03-29T23:26:32.036Z,4.09
2019-03-29T23:29:03.243Z,3.98
2019-03-29T23:31:34.346Z,3.92
2019-03-29T23:34:05.677Z,3.85
2019-03-29T23:36:36.852Z,4.10
2019-03-29T23:39:09.036Z,4.20
2019-03-29T23:41:40.141Z,4.44
2019-03-29T23:44:11.346Z,4.55
2019-03-29T23:46:42.613Z,4.26
2019-03-29T23:49:21.069Z,4.09
2019-03-29T23:51:47.106Z,4.08
2019-03-29T23:54:18.311Z,3.99
2019-03-29T23:56:49.551Z,3.85
2019-03-29T23:59:20.652Z,3.83
